Time;durP1;ratioP1;P1;durP2;ratioP2;P2;SDS_P1;SDS_P2;PMS_P1;PMS_P2;Temp;Humidity;BMP_temperature;BMP_pressure;BME280_temperature;BME280_humidity;BME280_pressure;Samples;Min_cycle;Max_cycle;Signal;HPM_P1;HPM_P2
2021/10/26 00:02:18;;;;;;;11.70;10.00;;;9.50;99.90;;;;;;5031279;28;20497;-73
2021/10/26 00:05:05;;;;;;;12.33;10.00;;;9.60;99.90;;;;;;5018132;28;20434;-73
2021/10/26 00:07:52;;;;;;;17.93;10.97;;;9.60;99.90;;;;;;4993676;28;20449;-73
2021/10/26 00:10:38;;;;;;;12.50;9.40;;;9.60;99.90;;;;;;4995610;28;20569;-73
2021/10/26 00:13:23;;;;;;;17.43;9.43;;;9.70;99.90;;;;;;4995557;28;20411;-73
2021/10/26 00:16:09;;;;;;;12.63;9.80;;;9.70;99.90;;;;;;4995506;28;20806;-73
2021/10/26 00:18:56;;;;;;;13.60;9.03;;;9.70;99.90;;;;;;4995155;28;20424;-73
2021/10/26 00:21:41;;;;;;;11.90;9.13;;;9.70;99.90;;;;;;4995278;28;20428;-73
2021/10/26 00:24:28;;;;;;;13.40;9.63;;;9.70;99.90;;;;;;4993277;28;20429;-73
2021/10/26 00:27:14;;;;;;;15.67;11.77;;;9.70;99.90;;;;;;5016916;28;20522;-73
2021/10/26 00:30:00;;;;;;;16.43;10.50;;;9.70;99.90;;;;;;5022535;28;20488;-73
2021/10/26 00:32:45;;;;;;;13.90;10.10;;;9.70;99.90;;;;;;5034565;28;20498;-73
2021/10/26 00:35:31;;;;;;;11.90;9.10;;;9.80;99.90;;;;;;5034698;28;20800;-73
2021/10/26 00:38:17;;;;;;;16.13;10.80;;;9.80;99.90;;;;;;5033967;28;20567;-73
2021/10/26 00:41:04;;;;;;;18.57;11.37;;;9.80;99.90;;;;;;5034700;28;20748;-73
2021/10/26 00:43:50;;;;;;;13.73;9.87;;;9.80;99.90;;;;;;5034357;28;20629;-73
2021/10/26 00:46:37;;;;;;;14.23;10.00;;;9.80;99.90;;;;;;5034460;28;20516;-73
2021/10/26 00:49:23;;;;;;;18.27;10.50;;;9.80;99.90;;;;;;5033811;28;20466;-73
2021/10/26 00:52:09;;;;;;;12.90;10.60;;;9.90;99.90;;;;;;5034474;28;20423;-71
2021/10/26 00:54:54;;;;;;;13.77;10.07;;;9.90;99.90;;;;;;5034201;28;20428;-71
2021/10/26 00:57:41;;;;;;;14.40;10.23;;;9.90;99.90;;;;;;5027735;28;20571;-71
2021/10/26 01:00:27;;;;;;;11.43;8.83;;;10.00;99.90;;;;;;5034061;28;20484;-71
2021/10/26 01:03:12;;;;;;;17.90;10.13;;;10.00;99.90;;;;;;5028274;28;20486;-71
2021/10/26 01:05:58;;;;;;;12.73;10.00;;;10.00;99.90;;;;;;4994857;28;21102;-71
2021/10/26 01:08:45;;;;;;;16.33;10.03;;;10.00;99.90;;;;;;4994401;28;20508;-71
2021/10/26 01:11:31;;;;;;;14.50;9.97;;;10.00;99.90;;;;;;4993369;28;20522;-71
2021/10/26 01:14:18;;;;;;;13.90;9.50;;;10.10;99.90;;;;;;4994607;28;20418;-71
2021/10/26 01:17:06;;;;;;;11.30;8.53;;;10.10;99.90;;;;;;4993976;28;20458;-71
2021/10/26 01:19:55;;;;;;;17.70;10.43;;;10.10;99.90;;;;;;4993823;28;20533;-71
2021/10/26 01:22:41;;;;;;;12.33;9.00;;;10.10;99.90;;;;;;4994338;28;20475;-71
2021/10/26 01:25:27;;;;;;;12.17;9.47;;;10.20;99.90;;;;;;4994424;28;20426;-71
2021/10/26 01:28:14;;;;;;;9.60;8.37;;;10.10;99.90;;;;;;5024592;28;20442;-71
2021/10/26 01:30:59;;;;;;;10.83;9.40;;;10.10;99.90;;;;;;4994251;28;20412;-71
2021/10/26 01:33:45;;;;;;;11.43;8.30;;;10.10;99.90;;;;;;4994237;28;20413;-71
2021/10/26 01:36:33;;;;;;;12.83;9.67;;;10.10;99.90;;;;;;5010859;28;20425;-71
2021/10/26 01:39:18;;;;;;;11.57;8.60;;;10.10;99.90;;;;;;5013204;28;20480;-70
2021/10/26 01:42:05;;;;;;;12.77;8.80;;;10.10;99.90;;;;;;5013601;28;20957;-71
2021/10/26 01:44:50;;;;;;;11.50;9.50;;;10.10;99.90;;;;;;5013377;28;20428;-71
2021/10/26 01:47:36;;;;;;;17.90;9.10;;;10.10;99.90;;;;;;5013442;28;20425;-71
2021/10/26 01:50:23;;;;;;;15.53;10.37;;;10.10;99.90;;;;;;5012992;28;20425;-71
2021/10/26 01:53:10;;;;;;;15.17;10.00;;;10.00;99.90;;;;;;5013328;28;20442;-71
2021/10/26 01:55:56;;;;;;;11.00;9.73;;;10.00;99.90;;;;;;5010105;28;20436;-71
2021/10/26 01:58:42;;;;;;;13.17;9.87;;;10.00;99.90;;;;;;5032116;28;20443;-71
2021/10/26 02:01:27;;;;;;;15.43;9.50;;;10.00;99.90;;;;;;5032850;28;20424;-71
2021/10/26 02:04:13;;;;;;;12.37;9.80;;;10.10;99.90;;;;;;4993546;28;20468;-71
2021/10/26 02:06:59;;;;;;;11.80;8.20;;;10.10;99.90;;;;;;4992265;28;20489;-71
2021/10/26 02:09:45;;;;;;;18.60;9.70;;;10.10;99.90;;;;;;4993128;28;20445;-71
2021/10/26 02:12:32;;;;;;;15.60;10.40;;;10.10;99.90;;;;;;4992510;28;20426;-71
2021/10/26 02:15:17;;;;;;;11.90;8.70;;;10.10;99.90;;;;;;5004739;28;20578;-71
2021/10/26 02:18:03;;;;;;;9.97;8.87;;;10.10;99.90;;;;;;5012431;28;20467;-71
2021/10/26 02:20:49;;;;;;;11.63;8.90;;;10.20;99.90;;;;;;5013011;28;20454;-71
2021/10/26 02:23:35;;;;;;;15.27;8.97;;;10.20;99.90;;;;;;5012656;28;20841;-71
2021/10/26 02:26:22;;;;;;;12.67;9.33;;;10.30;99.90;;;;;;5013032;28;20440;-71
2021/10/26 02:29:08;;;;;;;11.37;9.63;;;10.20;99.90;;;;;;5031457;28;20534;-71
2021/10/26 02:31:54;;;;;;;13.80;9.13;;;10.20;99.90;;;;;;5032516;28;20419;-71
2021/10/26 02:34:40;;;;;;;11.30;9.30;;;10.20;99.90;;;;;;5032522;28;20424;-71
2021/10/26 02:37:25;;;;;;;13.40;9.97;;;10.30;99.90;;;;;;5032619;28;20438;-71
2021/10/26 02:40:12;;;;;;;17.47;10.80;;;10.20;99.90;;;;;;5032276;28;20418;-71
2021/10/26 02:42:59;;;;;;;15.90;11.50;;;10.30;99.90;;;;;;5032268;28;20468;-72
2021/10/26 02:45:44;;;;;;;14.70;10.60;;;10.30;99.90;;;;;;5032271;28;20420;-71
2021/10/26 02:48:30;;;;;;;15.00;10.10;;;10.30;99.90;;;;;;5031573;28;20484;-71
2021/10/26 02:51:17;;;;;;;14.00;9.90;;;10.30;99.90;;;;;;5032127;28;20421;-72
2021/10/26 02:54:05;;;;;;;14.70;10.77;;;10.30;99.90;;;;;;5032100;28;20444;-71
2021/10/26 02:56:51;;;;;;;17.93;10.63;;;10.20;99.90;;;;;;5025808;28;20478;-71
2021/10/26 02:59:38;;;;;;;13.17;10.73;;;10.30;99.90;;;;;;5031426;28;20445;-71
2021/10/26 03:02:24;;;;;;;20.03;10.50;;;10.20;99.90;;;;;;4993738;28;20489;-71
2021/10/26 03:05:10;;;;;;;18.40;11.40;;;10.20;99.90;;;;;;4992573;28;20428;-71
2021/10/26 03:07:56;;;;;;;17.10;10.93;;;10.10;99.90;;;;;;4991798;28;20461;-71
2021/10/26 03:10:41;;;;;;;16.20;10.90;;;10.20;99.90;;;;;;4992527;28;20421;-71
2021/10/26 03:13:27;;;;;;;13.20;10.30;;;10.20;99.90;;;;;;4992618;28;20465;-71
2021/10/26 03:16:14;;;;;;;13.80;10.20;;;10.10;99.90;;;;;;4992688;28;20425;-71
2021/10/26 03:19:04;;;;;;;14.17;10.60;;;10.10;99.90;;;;;;4992026;28;20457;-71
2021/10/26 03:21:49;;;;;;;12.83;9.50;;;10.10;99.90;;;;;;4992468;28;20411;-71
2021/10/26 03:24:35;;;;;;;17.00;10.03;;;10.00;99.90;;;;;;4992287;28;20458;-71
2021/10/26 03:27:21;;;;;;;11.47;8.70;;;10.10;99.90;;;;;;5015417;28;20608;-71
2021/10/26 03:30:08;;;;;;;15.67;10.40;;;10.00;99.90;;;;;;5031019;28;20431;-71
2021/10/26 03:32:55;;;;;;;12.83;10.20;;;10.10;99.90;;;;;;5031700;28;20420;-72
2021/10/26 03:35:40;;;;;;;15.27;9.37;;;10.00;99.90;;;;;;5031573;28;20504;-71
2021/10/26 03:38:26;;;;;;;11.37;9.20;;;10.00;99.90;;;;;;5031154;28;20444;-71
2021/10/26 03:41:12;;;;;;;14.27;9.90;;;10.00;99.90;;;;;;5033093;28;20590;-70
2021/10/26 03:43:58;;;;;;;18.33;10.13;;;10.10;99.90;;;;;;5035635;28;20510;-71
2021/10/26 03:46:43;;;;;;;16.63;9.93;;;10.10;99.90;;;;;;5035492;28;20427;-71
2021/10/26 03:49:30;;;;;;;14.43;9.70;;;10.20;99.90;;;;;;5035014;28;20983;-71
2021/10/26 03:52:16;;;;;;;13.20;9.60;;;10.20;99.90;;;;;;5035439;28;20498;-72
2021/10/26 03:55:02;;;;;;;12.00;9.47;;;10.20;99.90;;;;;;5035608;28;20427;-71
2021/10/26 03:57:47;;;;;;;11.60;8.70;;;10.20;99.90;;;;;;5028742;28;20451;-71
2021/10/26 04:00:33;;;;;;;10.17;8.83;;;10.20;99.90;;;;;;5004016;28;20494;-71
2021/10/26 04:03:19;;;;;;;16.77;9.90;;;10.20;99.90;;;;;;4992669;28;20491;-71
2021/10/26 04:06:08;;;;;;;14.23;9.30;;;10.20;99.90;;;;;;4993573;28;20958;-71
2021/10/26 04:08:58;;;;;;;19.97;10.30;;;10.30;99.90;;;;;;4995441;28;20466;-71
2021/10/26 04:11:53;;;;;;;13.37;8.93;;;10.40;99.90;;;;;;4995691;28;20421;-71
2021/10/26 04:14:38;;;;;;;12.43;8.43;;;10.40;99.90;;;;;;4995757;28;20483;-71
2021/10/26 04:17:25;;;;;;;12.47;8.87;;;10.40;99.90;;;;;;4995626;28;20938;-71
2021/10/26 04:20:11;;;;;;;10.40;8.50;;;10.40;99.90;;;;;;4995292;28;21074;-74
2021/10/26 04:22:58;;;;;;;19.70;8.10;;;10.40;99.90;;;;;;4995468;28;20565;-74
2021/10/26 04:25:44;;;;;;;14.27;8.80;;;10.40;99.90;;;;;;4997403;28;20784;-73
2021/10/26 04:28:30;;;;;;;8.63;7.30;;;10.40;99.90;;;;;;5032314;28;20433;-73
2021/10/26 04:31:16;;;;;;;14.10;8.20;;;10.30;99.90;;;;;;5034774;28;20466;-74
2021/10/26 04:34:02;;;;;;;10.90;7.60;;;10.30;99.90;;;;;;5034592;28;20990;-73
2021/10/26 04:36:47;;;;;;;9.10;7.47;;;10.30;99.90;;;;;;5034730;28;20514;-73
2021/10/26 04:39:34;;;;;;;11.30;8.70;;;10.30;99.90;;;;;;5034181;28;20451;-71
2021/10/26 04:42:20;;;;;;;9.70;8.20;;;10.40;99.90;;;;;;5034561;28;20431;-71
2021/10/26 04:45:07;;;;;;;13.30;8.20;;;10.40;99.90;;;;;;5034278;28;20475;-71
2021/10/26 04:47:53;;;;;;;9.87;8.33;;;10.40;99.90;;;;;;5044730;22;20437;-70
2021/10/26 04:50:38;;;;;;;8.70;7.73;;;10.40;99.90;;;;;;5033320;28;20498;-70
2021/10/26 04:53:24;;;;;;;16.10;8.60;;;10.40;99.90;;;;;;5033818;28;21056;-71
2021/10/26 04:56:11;;;;;;;8.10;7.30;;;10.40;99.90;;;;;;5039568;28;20418;-70
2021/10/26 04:58:57;;;;;;;10.17;7.40;;;10.40;99.90;;;;;;5027703;28;20979;-70
2021/10/26 05:01:42;;;;;;;9.00;8.00;;;10.40;99.90;;;;;;5034253;28;20422;-71
2021/10/26 05:04:28;;;;;;;11.97;8.17;;;10.40;99.90;;;;;;5034060;28;20530;-70
2021/10/26 05:07:15;;;;;;;9.47;8.00;;;10.50;99.90;;;;;;5032727;28;20559;-70
2021/10/26 05:10:01;;;;;;;10.00;8.57;;;10.40;99.90;;;;;;5033601;28;20498;-70
2021/10/26 05:12:48;;;;;;;18.03;8.40;;;10.50;99.90;;;;;;5033984;28;20432;-70
2021/10/26 05:15:34;;;;;;;12.97;8.63;;;10.50;99.90;;;;;;5033834;28;20414;-70
2021/10/26 05:18:20;;;;;;;12.43;8.27;;;10.50;99.90;;;;;;5033514;28;20451;-71
2021/10/26 05:21:08;;;;;;;11.70;8.23;;;10.60;99.90;;;;;;5033729;28;20549;-71
2021/10/26 05:23:54;;;;;;;14.40;8.83;;;10.60;99.90;;;;;;5034018;28;20544;-71
2021/10/26 05:26:39;;;;;;;11.80;7.83;;;10.70;99.90;;;;;;5039896;28;20436;-71
2021/10/26 05:29:26;;;;;;;15.63;8.47;;;10.60;99.90;;;;;;5033118;28;20571;-71
2021/10/26 05:32:13;;;;;;;10.30;8.50;;;10.70;99.90;;;;;;5033571;28;20427;-71
2021/10/26 05:34:59;;;;;;;14.40;7.77;;;10.70;99.90;;;;;;5033527;28;20499;-71
2021/10/26 05:37:44;;;;;;;14.07;8.63;;;10.70;99.90;;;;;;5033639;28;20420;-71
2021/10/26 05:40:30;;;;;;;10.63;7.50;;;10.70;99.90;;;;;;5033143;28;20432;-71
2021/10/26 05:43:16;;;;;;;12.07;8.13;;;10.70;99.90;;;;;;5033356;28;20427;-71
2021/10/26 05:46:03;;;;;;;11.63;8.00;;;10.60;99.90;;;;;;5033323;28;20413;-71
2021/10/26 05:48:48;;;;;;;9.43;7.30;;;10.70;99.90;;;;;;5032608;28;20481;-71
2021/10/26 05:51:34;;;;;;;9.43;8.17;;;10.60;99.90;;;;;;5027848;28;20486;-71
2021/10/26 05:54:19;;;;;;;11.53;8.03;;;10.60;99.90;;;;;;5011705;28;21193;-71
2021/10/26 05:57:05;;;;;;;11.13;9.10;;;10.60;99.90;;;;;;5028045;28;20408;-71
2021/10/26 05:59:51;;;;;;;9.03;7.40;;;10.60;99.90;;;;;;5025428;28;20796;-71
2021/10/26 06:02:38;;;;;;;13.20;8.07;;;10.60;99.90;;;;;;5032784;28;20428;-71
2021/10/26 06:05:23;;;;;;;12.77;8.20;;;10.60;99.90;;;;;;5031784;28;20607;-71
2021/10/26 06:08:09;;;;;;;8.90;7.70;;;10.60;99.90;;;;;;5032477;28;20493;-71
2021/10/26 06:10:59;;;;;;;9.77;7.47;;;10.60;99.90;;;;;;5032749;28;20432;-72
2021/10/26 06:13:47;;;;;;;11.80;7.23;;;10.60;99.90;;;;;;5032622;28;20424;-71
2021/10/26 06:16:35;;;;;;;11.97;8.30;;;10.50;99.90;;;;;;5032897;28;20427;-71
2021/10/26 06:19:22;;;;;;;11.33;7.93;;;10.60;99.90;;;;;;5032212;28;20814;-71
2021/10/26 06:22:08;;;;;;;11.17;8.00;;;10.60;99.90;;;;;;5032643;28;20552;-71
2021/10/26 06:24:53;;;;;;;15.57;9.27;;;10.60;99.90;;;;;;5032562;28;20475;-71
2021/10/26 06:27:39;;;;;;;12.23;9.13;;;10.60;99.90;;;;;;5032423;28;20435;-71
2021/10/26 06:30:25;;;;;;;9.93;8.03;;;10.60;99.90;;;;;;5031850;28;20429;-71
2021/10/26 06:33:10;;;;;;;14.73;8.40;;;10.70;99.90;;;;;;5032348;28;20540;-71
2021/10/26 06:35:57;;;;;;;13.33;8.30;;;10.70;99.90;;;;;;5032529;28;20415;-71
2021/10/26 06:38:43;;;;;;;15.07;8.63;;;10.80;99.90;;;;;;5031774;28;20842;-71
2021/10/26 06:41:28;;;;;;;11.53;8.07;;;10.80;99.90;;;;;;5032429;28;20891;-71
2021/10/26 06:44:14;;;;;;;11.67;8.70;;;10.90;99.90;;;;;;5032165;28;20454;-71
2021/10/26 06:46:59;;;;;;;12.67;10.33;;;10.90;99.90;;;;;;5032128;28;20510;-73
2021/10/26 06:49:45;;;;;;;13.20;8.30;;;10.80;99.90;;;;;;5031890;28;20511;-71
2021/10/26 06:52:34;;;;;;;12.00;9.10;;;10.80;99.90;;;;;;5032306;28;20919;-71
2021/10/26 06:55:20;;;;;;;14.27;8.70;;;10.90;99.90;;;;;;5031786;28;20424;-71
2021/10/26 06:58:05;;;;;;;13.57;9.63;;;10.90;99.90;;;;;;5026381;28;20447;-71
2021/10/26 07:00:51;;;;;;;10.50;8.43;;;10.90;99.90;;;;;;5031984;28;20787;-71
2021/10/26 07:03:37;;;;;;;12.60;9.03;;;11.00;99.90;;;;;;5032057;28;20435;-71
2021/10/26 07:06:23;;;;;;;12.37;7.53;;;10.90;99.90;;;;;;5030634;28;20420;-71
2021/10/26 07:09:10;;;;;;;10.93;8.10;;;11.00;99.90;;;;;;5031745;28;20448;-71
2021/10/26 07:11:57;;;;;;;11.20;8.53;;;11.00;99.90;;;;;;5031080;28;20479;-71
2021/10/26 07:14:42;;;;;;;14.70;8.20;;;10.90;99.90;;;;;;5031841;28;20478;-71
2021/10/26 07:17:28;;;;;;;11.23;7.80;;;11.00;99.90;;;;;;5031674;28;20474;-71
2021/10/26 07:20:15;;;;;;;13.77;9.43;;;10.90;99.90;;;;;;5031353;28;20442;-71
2021/10/26 07:23:00;;;;;;;16.27;11.13;;;11.00;99.90;;;;;;5031786;28;20416;-71
2021/10/26 07:25:48;;;;;;;17.57;10.07;;;11.00;99.90;;;;;;5033539;28;20480;-71
2021/10/26 07:28:33;;;;;;;14.33;8.50;;;11.10;99.90;;;;;;5032431;28;20902;-71
2021/10/26 07:31:23;;;;;;;11.90;8.77;;;11.10;99.90;;;;;;5031451;28;20423;-71
2021/10/26 07:34:12;;;;;;;19.63;10.07;;;11.10;99.90;;;;;;5031749;28;20394;-71
2021/10/26 07:36:57;;;;;;;16.83;9.00;;;11.20;99.90;;;;;;5031501;28;20444;-71
2021/10/26 07:39:47;;;;;;;16.33;9.60;;;11.20;99.90;;;;;;5029125;28;20436;-72
2021/10/26 07:42:34;;;;;;;10.53;8.03;;;11.30;99.90;;;;;;5011348;28;20440;-71
2021/10/26 07:45:20;;;;;;;10.53;9.43;;;11.30;99.90;;;;;;5011727;28;20483;-71
2021/10/26 07:48:07;;;;;;;11.83;8.60;;;11.30;99.90;;;;;;5011133;28;20823;-72
2021/10/26 07:50:57;;;;;;;12.40;9.10;;;11.30;99.90;;;;;;5011863;28;20432;-71
2021/10/26 07:53:42;;;;;;;13.20;9.47;;;11.40;99.90;;;;;;5016958;28;20436;-71
2021/10/26 07:56:28;;;;;;;11.27;8.90;;;11.50;99.90;;;;;;5037983;28;20471;-72
2021/10/26 07:59:15;;;;;;;11.40;8.73;;;11.50;99.90;;;;;;5030760;28;20498;-71
2021/10/26 08:02:01;;;;;;;11.17;8.60;;;11.50;99.90;;;;;;5031292;28;20420;-71
2021/10/26 08:04:47;;;;;;;15.10;9.30;;;11.50;99.90;;;;;;5031332;28;20593;-71
2021/10/26 08:07:33;;;;;;;12.53;9.40;;;11.60;99.90;;;;;;5030314;28;21022;-71
2021/10/26 08:10:19;;;;;;;16.00;11.77;;;11.60;99.90;;;;;;5031369;28;20420;-71
2021/10/26 08:13:05;;;;;;;18.23;11.83;;;11.60;99.90;;;;;;5031201;28;20430;-71
2021/10/26 08:15:52;;;;;;;13.00;10.93;;;11.50;99.90;;;;;;5031334;28;20417;-71
2021/10/26 08:18:38;;;;;;;12.63;10.20;;;11.50;99.90;;;;;;5030723;28;20452;-71
2021/10/26 08:21:24;;;;;;;9.87;8.87;;;11.50;99.90;;;;;;5031114;28;20908;-71
2021/10/26 08:24:10;;;;;;;12.50;9.70;;;11.60;99.90;;;;;;5030985;28;20937;-71
2021/10/26 08:26:59;;;;;;;13.77;9.80;;;11.60;99.90;;;;;;5037331;28;20946;-71
2021/10/26 08:29:52;;;;;;;12.20;10.90;;;11.60;99.90;;;;;;5026368;28;20443;-71
2021/10/26 08:32:49;;;;;;;13.57;9.70;;;11.60;99.90;;;;;;5034862;28;20796;-71
2021/10/26 08:35:34;;;;;;;17.97;10.13;;;11.60;99.90;;;;;;5034646;28;20913;-71
2021/10/26 08:38:20;;;;;;;11.33;9.50;;;11.60;99.90;;;;;;5034179;28;21047;-71
2021/10/26 08:41:07;;;;;;;12.00;10.60;;;11.60;99.90;;;;;;5034606;28;20423;-71
2021/10/26 08:43:54;;;;;;;18.43;10.27;;;11.60;99.90;;;;;;5034528;28;20551;-71
2021/10/26 08:46:40;;;;;;;10.23;8.80;;;11.70;99.90;;;;;;5034569;28;20389;-71
2021/10/26 08:49:27;;;;;;;12.83;9.70;;;11.70;99.90;;;;;;5033939;28;20593;-71
2021/10/26 08:52:14;;;;;;;14.73;10.00;;;11.80;99.90;;;;;;5034180;28;20428;-71
2021/10/26 08:55:01;;;;;;;15.80;10.70;;;11.80;99.90;;;;;;5034319;28;20571;-71
2021/10/26 08:57:47;;;;;;;12.47;9.60;;;11.80;99.90;;;;;;5040537;28;20586;-71
2021/10/26 09:00:33;;;;;;;12.40;10.40;;;11.80;99.90;;;;;;5033861;28;20440;-71
2021/10/26 09:03:20;;;;;;;14.60;9.97;;;11.80;99.90;;;;;;5034308;28;20424;-71
2021/10/26 09:06:08;;;;;;;19.40;10.80;;;11.90;99.90;;;;;;5033048;28;20471;-71
2021/10/26 09:08:56;;;;;;;14.30;10.30;;;11.90;99.90;;;;;;5033637;28;20439;-71
2021/10/26 09:18:12;;;;;;;13.70;11.40;;;11.90;99.90;;;;;;5033650;28;20486;-71
2021/10/26 09:20:57;;;;;;;12.67;11.23;;;11.90;99.90;;;;;;5033790;28;20788;-71
2021/10/26 09:23:49;;;;;;;15.90;10.50;;;12.00;99.90;;;;;;5033918;28;20420;-71
2021/10/26 09:26:48;;;;;;;16.07;10.80;;;12.00;99.90;;;;;;5040210;28;20470;-71
2021/10/26 09:29:42;;;;;;;16.20;12.50;;;12.00;99.90;;;;;;5024665;28;20464;-71
2021/10/26 09:32:35;;;;;;;12.27;10.97;;;12.00;99.90;;;;;;5012567;28;20428;-71
2021/10/26 09:35:20;;;;;;;16.10;10.30;;;12.00;99.90;;;;;;5013840;28;20422;-71
2021/10/26 09:38:06;;;;;;;19.20;11.17;;;12.10;99.90;;;;;;5013147;28;20574;-71
2021/10/26 09:40:53;;;;;;;21.73;10.93;;;12.10;99.90;;;;;;5013855;28;20505;-71
2021/10/26 09:43:38;;;;;;;12.63;10.60;;;12.00;99.90;;;;;;5013602;28;20548;-71
2021/10/26 09:46:24;;;;;;;11.10;10.00;;;12.10;99.90;;;;;;5013437;28;20650;-71
2021/10/26 09:49:23;;;;;;;17.53;10.43;;;12.10;99.90;;;;;;5013021;28;20635;-71
2021/10/26 09:52:16;;;;;;;12.90;10.47;;;12.10;99.90;;;;;;5028994;28;20525;-71
2021/10/26 09:55:13;;;;;;;13.43;11.10;;;12.10;99.90;;;;;;5033305;28;20424;-71
2021/10/26 09:58:02;;;;;;;12.57;10.43;;;12.20;99.90;;;;;;5027306;28;20416;-71
2021/10/26 10:00:50;;;;;;;21.27;10.90;;;12.20;99.90;;;;;;5013332;28;20775;-71
2021/10/26 10:03:36;;;;;;;14.77;10.00;;;12.30;99.90;;;;;;5013255;28;20421;-71
2021/10/26 10:06:22;;;;;;;15.20;10.40;;;12.30;99.90;;;;;;5012192;28;20548;-71
2021/10/26 10:09:19;;;;;;;15.13;11.63;;;12.30;99.90;;;;;;5012546;28;20555;-71
2021/10/26 10:12:07;;;;;;;15.73;10.20;;;12.30;99.90;;;;;;5013182;28;20479;-71
2021/10/26 10:14:55;;;;;;;14.03;9.00;;;12.40;99.90;;;;;;5013232;28;20455;-72
2021/10/26 10:17:42;;;;;;;13.03;9.60;;;12.50;99.90;;;;;;5013198;28;20433;-71
2021/10/26 10:20:28;;;;;;;15.87;10.20;;;12.50;99.90;;;;;;5012788;28;20903;-71
2021/10/26 10:23:14;;;;;;;12.40;10.90;;;12.60;99.90;;;;;;5012854;28;20450;-71
2021/10/26 10:26:01;;;;;;;15.00;11.70;;;12.70;99.90;;;;;;5020392;28;20478;-71
2021/10/26 10:28:49;;;;;;;18.07;10.10;;;12.90;99.90;;;;;;5024577;28;20469;-71
2021/10/26 10:31:37;;;;;;;14.93;10.00;;;13.00;99.90;;;;;;5032552;28;20928;-71
2021/10/26 10:34:23;;;;;;;12.10;9.20;;;13.20;99.90;;;;;;5032252;28;20554;-71
2021/10/26 10:37:10;;;;;;;9.80;8.57;;;13.30;99.90;;;;;;5032492;28;20437;-71
2021/10/26 10:39:57;;;;;;;11.20;8.03;;;13.40;99.90;;;;;;5031883;28;20957;-71
2021/10/26 10:42:48;;;;;;;11.60;7.63;;;13.40;99.90;;;;;;5032395;28;20425;-71
2021/10/26 10:45:35;;;;;;;10.97;7.60;;;13.50;99.90;;;;;;5032295;28;20475;-71
2021/10/26 10:48:30;;;;;;;12.53;8.00;;;13.40;99.90;;;;;;5048265;22;20512;-75
2021/10/26 10:51:15;;;;;;;11.67;7.57;;;13.40;99.90;;;;;;5011636;28;20441;-76
2021/10/26 10:54:01;;;;;;;7.90;6.40;;;13.40;99.90;;;;;;5012514;28;20530;-75
2021/10/26 10:57:15;;;;;;;9.83;6.37;;;13.20;99.90;;;;;;5032587;28;20514;-75
2021/10/26 11:00:05;;;;;;;8.97;5.53;;;13.20;99.90;;;;;;5040034;28;20534;-75
2021/10/26 11:02:51;;;;;;;8.90;5.97;;;13.20;99.90;;;;;;5052161;28;20462;-75
2021/10/26 11:05:42;;;;;;;7.57;5.20;;;13.30;99.90;;;;;;5051786;28;20822;-76
2021/10/26 11:08:46;;;;;;;10.47;6.00;;;13.30;99.90;;;;;;5051435;28;20447;-76
2021/10/26 11:11:31;;;;;;;7.53;6.13;;;13.20;99.90;;;;;;5050757;28;20466;-75
2021/10/26 11:14:19;;;;;;;9.37;5.77;;;13.20;99.90;;;;;;5051905;28;20816;-75
2021/10/26 11:17:58;;;;;;;9.43;5.63;;;13.20;99.90;;;;;;5051807;28;20437;-75
2021/10/26 11:20:48;;;;;;;11.00;6.80;;;13.30;99.90;;;;;;5010895;28;20477;-75
2021/10/26 11:23:43;;;;;;;9.83;6.67;;;13.20;99.90;;;;;;5012222;28;20464;-76
2021/10/26 11:26:33;;;;;;;9.90;6.73;;;13.40;99.90;;;;;;5027082;28;20466;-76
2021/10/26 11:29:29;;;;;;;7.43;5.90;;;13.70;99.90;;;;;;5042825;28;21000;-75
2021/10/26 11:32:15;;;;;;;8.40;5.97;;;13.90;99.90;;;;;;5051595;28;20945;-76
2021/10/26 11:35:17;;;;;;;8.83;5.60;;;14.10;99.90;;;;;;5051732;28;20421;-74
2021/10/26 11:38:08;;;;;;;8.77;5.73;;;14.20;99.90;;;;;;5051334;28;21071;-76
2021/10/26 11:40:54;;;;;;;9.50;6.20;;;14.20;99.90;;;;;;5052008;28;20415;-75
2021/10/26 11:43:43;;;;;;;7.50;5.60;;;14.10;99.90;;;;;;5051559;28;20467;-76
2021/10/26 11:46:33;;;;;;;9.70;5.80;;;14.10;99.90;;;;;;5051451;28;20468;-76
2021/10/26 11:49:22;;;;;;;6.93;4.97;;;14.10;99.90;;;;;;5019487;28;20489;-76
2021/10/26 11:52:08;;;;;;;9.33;5.43;;;14.10;99.90;;;;;;5011801;28;20564;-76
2021/10/26 11:54:54;;;;;;;9.73;4.70;;;14.10;99.90;;;;;;5011877;28;20441;-76
2021/10/26 11:57:40;;;;;;;7.37;5.17;;;14.10;99.90;;;;;;5043525;28;20429;-75
2021/10/26 12:00:26;;;;;;;9.30;5.33;;;14.20;99.90;;;;;;5048681;28;21144;-75
2021/10/26 12:03:11;;;;;;;9.20;5.90;;;14.20;99.90;;;;;;5052863;28;20414;-76
2021/10/26 12:05:58;;;;;;;8.43;5.40;;;14.20;99.90;;;;;;5055235;28;20448;-76
2021/10/26 12:08:43;;;;;;;7.77;6.00;;;13.90;99.90;;;;;;5054710;28;20425;-76
2021/10/26 12:11:33;;;;;;;11.67;6.60;;;13.80;99.90;;;;;;5054296;28;20426;-76
2021/10/26 12:14:32;;;;;;;10.23;6.23;;;13.80;99.90;;;;;;5055094;28;20395;-76
2021/10/26 12:17:28;;;;;;;11.77;6.60;;;13.80;99.90;;;;;;5055159;28;20387;-76
2021/10/26 12:20:17;;;;;;;8.03;5.70;;;13.70;99.90;;;;;;5054424;28;20447;-76
2021/10/26 12:23:04;;;;;;;10.50;5.27;;;13.60;99.90;;;;;;5054955;28;20415;-74
2021/10/26 12:25:52;;;;;;;7.90;5.70;;;13.60;99.90;;;;;;5054810;28;20832;-76
2021/10/26 12:28:39;;;;;;;8.40;6.37;;;13.60;99.90;;;;;;5045997;28;20452;-76
2021/10/26 12:31:25;;;;;;;5.37;4.77;;;13.60;99.90;;;;;;5054806;28;20771;-76
2021/10/26 12:34:10;;;;;;;7.60;4.93;;;13.50;99.90;;;;;;5054644;28;20427;-76
2021/10/26 12:37:17;;;;;;;6.87;4.70;;;13.50;99.90;;;;;;5054836;28;20423;-76
2021/10/26 12:40:11;;;;;;;6.93;5.57;;;13.70;99.90;;;;;;5054421;28;20510;-75
2021/10/26 12:43:03;;;;;;;8.03;5.77;;;13.90;99.90;;;;;;5054667;28;20470;-76
2021/10/26 12:45:52;;;;;;;9.77;6.37;;;14.30;99.90;;;;;;5054433;28;20438;-76
2021/10/26 12:48:38;;;;;;;8.43;5.53;;;14.60;99.90;;;;;;5014362;28;20458;-74
2021/10/26 12:51:25;;;;;;;8.20;5.53;;;14.70;99.90;;;;;;5014625;28;20433;-75
2021/10/26 12:54:12;;;;;;;11.23;5.70;;;14.70;99.90;;;;;;5014739;28;20395;-76
2021/10/26 12:57:00;;;;;;;7.70;4.60;;;14.50;99.90;;;;;;5037918;28;20447;-75
2021/10/26 12:59:46;;;;;;;6.33;5.00;;;14.40;99.90;;;;;;5038100;28;20984;-75
2021/10/26 13:02:33;;;;;;;6.00;5.00;;;14.40;99.90;;;;;;5054364;28;20415;-76
2021/10/26 13:05:18;;;;;;;8.93;4.50;;;14.30;99.90;;;;;;5054130;28;20901;-76
2021/10/26 13:08:05;;;;;;;7.97;4.80;;;14.20;99.90;;;;;;5020465;28;20419;-75
2021/10/26 13:10:51;;;;;;;11.00;5.57;;;14.30;99.90;;;;;;5012973;28;20548;-74
2021/10/26 13:13:37;;;;;;;8.07;5.40;;;14.30;99.90;;;;;;5013973;28;20429;-74
2021/10/26 13:16:33;;;;;;;9.30;5.03;;;14.30;99.90;;;;;;5014086;28;20485;-76
2021/10/26 13:19:28;;;;;;;12.20;5.07;;;14.30;99.90;;;;;;5013793;28;20450;-76
2021/10/26 13:22:13;;;;;;;9.87;5.23;;;14.30;99.90;;;;;;5014110;28;20811;-76
2021/10/26 13:25:00;;;;;;;6.50;4.20;;;14.20;99.90;;;;;;5014097;28;20424;-75
2021/10/26 13:27:46;;;;;;;5.80;4.63;;;14.20;99.90;;;;;;5050514;28;20446;-76
2021/10/26 13:30:33;;;;;;;6.30;5.03;;;14.20;99.90;;;;;;5035234;28;20437;-75
2021/10/26 13:33:20;;;;;;;11.80;4.57;;;14.10;99.90;;;;;;5033590;28;20410;-75
2021/10/26 13:36:08;;;;;;;12.90;4.83;;;14.10;99.90;;;;;;5033788;28;20462;-75
2021/10/26 13:38:54;;;;;;;6.50;4.97;;;14.00;99.90;;;;;;5033163;28;20865;-76
2021/10/26 13:41:42;;;;;;;17.90;4.53;;;14.00;99.90;;;;;;5033436;28;20431;-76
2021/10/26 13:44:28;;;;;;;6.63;3.80;;;14.00;99.90;;;;;;5033345;28;20437;-76
2021/10/26 13:47:15;;;;;;;9.53;4.60;;;14.00;99.90;;;;;;5013709;28;20600;-75
2021/10/26 13:50:00;;;;;;;6.20;4.73;;;14.00;99.90;;;;;;5012857;28;20461;-75
2021/10/26 13:52:47;;;;;;;6.73;4.40;;;14.10;99.90;;;;;;5013652;28;20903;-75
2021/10/26 13:55:33;;;;;;;7.73;4.77;;;14.10;99.90;;;;;;5013735;28;20505;-75
2021/10/26 13:58:20;;;;;;;9.43;4.77;;;14.00;99.90;;;;;;5044672;28;20426;-75
2021/10/26 14:01:08;;;;;;;8.80;4.50;;;14.10;99.90;;;;;;5053052;28;20461;-76
2021/10/26 14:03:54;;;;;;;8.33;4.70;;;14.10;99.90;;;;;;5053104;28;20449;-75
2021/10/26 14:06:39;;;;;;;6.10;4.50;;;14.00;99.90;;;;;;5051401;28;20781;-76
2021/10/26 14:09:26;;;;;;;8.50;5.10;;;14.00;99.90;;;;;;5052535;28;20526;-76
2021/10/26 14:12:13;;;;;;;9.03;4.40;;;14.00;99.90;;;;;;5051885;28;20424;-76
2021/10/26 14:14:58;;;;;;;8.23;4.40;;;14.00;99.90;;;;;;5052595;28;20431;-76
2021/10/26 14:17:44;;;;;;;7.60;4.67;;;14.00;99.90;;;;;;5052887;28;20514;-76
2021/10/26 14:20:37;;;;;;;5.93;3.97;;;13.90;99.90;;;;;;5052462;28;20657;-76
2021/10/26 14:23:23;;;;;;;9.67;4.53;;;13.90;99.90;;;;;;5052530;28;20551;-75
2021/10/26 14:26:11;;;;;;;8.73;4.33;;;13.90;99.90;;;;;;5051916;28;20463;-75
2021/10/26 14:28:56;;;;;;;8.87;5.03;;;13.90;99.90;;;;;;5033929;28;20436;-76